Flight Track Log - Related Links

Times and Time Zones

All times are in EDT time to prevent confusion due to time zone crossing. See the N654DL flight status page for this flight to view local times or setup timezone preferences in your user account.

Time Position Orientation Groundspeed Altitude Reporting Facility
EDT Latitude Longitude Course Direction KTS MPH feet Rate Location/Type
Wed 05:42:42 PM 37.6333 -122.3667 63° Northeast 177 204 1,400  Level Northern Cal TRACON
Wed 05:43:42 PM 37.6833 -122.3167 38° Northeast 224 258 3,200 2,351 Climbing Northern Cal TRACON
Wed 05:45:00 PM 37.6169 -122.3839 119° Southeast  Level FlightAware Approximate
Wed 05:45:10 PM 37.7453 -122.2069 54° Northeast 266 306 7,200  Level Oakland Center
Wed 05:46:00 PM 37.6587 -122.2154 72° East  Level FlightAware Approximate
Wed 05:46:12 PM 37.7706 -122.1156 71° East 277 319 10,000  Level Oakland Center
Wed 05:47:00 PM 37.7127 -122.0515 63° Northeast  Level FlightAware Approximate
Wed 05:47:13 PM 37.7994 -122.0119 71° East 310 357 11,400  Level Oakland Center
Wed 05:48:15 PM 37.8333 -121.8903 71° East 364 419 13,300 2,098 Climbing Oakland Center
Wed 05:49:16 PM 37.8681 -121.7625 71° East 384 442 15,700 2,262 Climbing Oakland Center
Wed 05:50:17 PM 37.9042 -121.6322 71° East 391 450 17,900 2,146 Climbing Oakland Center
Wed 05:51:19 PM 37.9478 -121.4742 71° East 404 465 20,100 1,902 Climbing Oakland Center
Wed 05:52:20 PM 37.9856 -121.3328 71° East 422 486 21,800 1,561 Climbing Oakland Center
Wed 05:53:22 PM 38.0253 -121.1886 71° East 434 499 23,300 1,463 Climbing Oakland Center
Wed 05:54:23 PM 38.0650 -121.0389 71° East 448 516 24,800 1,366 Climbing Oakland Center
Wed 05:55:25 PM 38.1042 -120.8850 72° East 458 527 26,100 1,171 Climbing Oakland Center
Wed 05:56:26 PM 38.1417 -120.7247 73° East 473 544 27,200 1,279 Climbing Oakland Center
Wed 05:57:27 PM 38.1886 -120.5281 73° East 486 559 28,700 1,512 Climbing Oakland Center
Wed 05:58:29 PM 38.2278 -120.3656 73° East 486 559 30,300 1,122 Climbing Oakland Center
Wed 05:59:30 PM 38.2669 -120.2025 73° East 484 557 31,000 341 Climbing Oakland Center
Wed 06:00:32 PM 38.3058 -120.0392 73° East 485 558 31,000  Level Oakland Center
Wed 06:01:33 PM 38.3433 -119.8753 74° East 484 557 31,000 344 Level Oakland Center
Wed 06:02:34 PM 38.3806 -119.7083 74° East 488 562 31,700 927 Climbing Oakland Center
Wed 06:03:36 PM 38.4200 -119.5403 73° East 485 558 32,900 634 Climbing Oakland Center
Wed 06:04:37 PM 38.4575 -119.3756 74° East 485 558 33,000 488 Climbing Oakland Center
Wed 06:05:39 PM 38.4947 -119.2069 74° East 493 567 33,900 976 Climbing Oakland Center
Wed 06:06:40 PM 38.5214 -118.9989 81° East 499 574 35,000 541 Climbing Oakland Center
Wed 06:07:41 PM 38.5381 -118.8261 83° East 495 570 35,000  Level Oakland Center
Wed 06:08:43 PM 38.5553 -118.6522 83° East 496 571 35,000  Level Oakland Center
Wed 06:09:44 PM 38.5731 -118.4781 83° East 497 572 35,000  Level Oakland Center
Wed 06:10:46 PM 38.5889 -118.3022 83° East 501 577 35,000  Level Oakland Center
Wed 06:11:47 PM 38.6056 -118.1267 83° East 502 578 35,000  Level Oakland Center
Wed 06:12:48 PM 38.6225 -117.9394 83° East 500 575 35,000  Level Oakland Center
Wed 06:13:50 PM 38.6389 -117.7611 83° East 502 578 35,000  Level Oakland Center
Wed 06:14:51 PM 38.6539 -117.5822 84° East 502 578 35,000  Level Oakland Center
Wed 06:15:52 PM 38.6694 -117.4039 84° East 502 578 35,000  Level Oakland Center
Wed 06:16:33 PM 38.6836 -117.2611 83° East 502 578 35,000  Level Salt Lake Center
Wed 06:17:35 PM 38.7103 -117.0833 79° East 504 580 35,000  Level Salt Lake Center
Wed 06:17:55 PM 38.7161 -117.0486 78° East 503 579 35,000  Level Oakland Center
Wed 06:18:56 PM 38.7422 -116.8714 79° East 503 579 35,000  Level Oakland Center
Wed 06:19:38 PM 38.7633 -116.7283 79° East 506 582 35,000  Level Salt Lake Center
Wed 06:20:40 PM 38.7897 -116.5508 79° East 506 582 35,000  Level Salt Lake Center
Wed 06:20:59 PM 38.7997 -116.4789 80° East 508 585 35,000  Level Oakland Center
Wed 06:21:42 PM 38.8142 -116.3725 80° East 507 583 35,000  Level Salt Lake Center
Wed 06:22:44 PM 38.8408 -116.1922 79° East 512 589 35,000  Level Salt Lake Center
Wed 06:23:45 PM 38.8647 -116.0128 80° East 511 588 35,000  Level Salt Lake Center
Wed 06:24:47 PM 38.8906 -115.8322 80° East 513 590 35,000  Level Salt Lake Center
Wed 06:25:49 PM 38.9197 -115.6158 80° East 512 589 35,000  Level Salt Lake Center
Wed 06:26:50 PM 38.9442 -115.4347 80° East 514 592 35,000  Level Salt Lake Center
Wed 06:27:52 PM 38.9706 -115.2456 80° East 518 596 35,000  Level Salt Lake Center
Wed 06:28:54 PM 38.9961 -115.0625 80° East 521 600 35,000  Level Salt Lake Center
Wed 06:29:55 PM 39.0186 -114.8806 81° East 518 596 35,000  Level Salt Lake Center
Wed 06:30:57 PM 39.0431 -114.6969 80° East 519 597 35,000  Level Salt Lake Center
Wed 06:31:59 PM 39.0667 -114.5114 81° East 524 603 35,000  Level Salt Lake Center
Wed 06:33:00 PM 39.0903 -114.3272 81° East 523 602 35,000  Level Salt Lake Center
Wed 06:34:02 PM 39.1128 -114.1433 81° East 521 600 35,000  Level Salt Lake Center
Wed 06:35:04 PM 39.1406 -113.9206 81° East 524 603 35,000  Level Salt Lake Center
Wed 06:36:05 PM 39.1628 -113.7364 81° East 521 600 35,000  Level Salt Lake Center
Wed 06:37:07 PM 39.1844 -113.5500 81° East 524 603 35,000  Level Salt Lake Center
Wed 06:38:09 PM 39.2067 -113.3650 81° East 524 603 35,000 49 Level Salt Lake Center
Wed 06:39:10 PM 39.2275 -113.1800 82° East 522 601 35,100  Climbing Salt Lake Center
Wed 06:40:12 PM 39.2489 -112.9942 81° East 523 602 35,000 -48 Descending Salt Lake Center
Wed 06:41:14 PM 39.2689 -112.8064 82° East 526 605 35,000  Level Salt Lake Center
Wed 06:42:15 PM 39.2925 -112.6014 81° East 523 602 35,000  Level Salt Lake Center
Wed 06:43:17 PM 39.2992 -112.4175 87° East 518 596 35,000  Level Salt Lake Center
Wed 06:44:19 PM 39.2906 -112.2322 93° East 519 597 35,000  Level Salt Lake Center
Wed 06:45:21 PM 39.2808 -112.0478 94° East 518 596 35,000  Level Salt Lake Center
Wed 06:46:22 PM 39.2672 -111.8261 94° East 520 598 35,000  Level Salt Lake Center
Wed 06:47:24 PM 39.2569 -111.6419 94° East 519 597 35,000  Level Salt Lake Center
Wed 06:48:26 PM 39.2475 -111.4581 94° East 518 596 35,000  Level Salt Lake Center
Wed 06:49:27 PM 39.2344 -111.2656 95° East 522 601 35,000  Level Salt Lake Center
Wed 06:50:29 PM 39.2228 -111.0875 95° East 523 602 35,000  Level Salt Lake Center
Wed 06:51:31 PM 39.2100 -110.8814 95° East 518 596 35,000  Level Salt Lake Center
Wed 06:52:32 PM 39.1983 -110.7050 95° East 518 596 35,000  Level Salt Lake Center
Wed 06:53:05 PM 39.1914 -110.5869 94° East 516 594 35,000  Level Denver Center
Wed 06:54:07 PM 39.1797 -110.4100 95° East 517 595 35,000  Level Denver Center
Wed 06:54:36 PM 39.1750 -110.3231 94° East 517 595 35,000  Level Salt Lake Center
Wed 06:55:38 PM 39.1611 -110.1164 95° East 521 600 35,000  Level Salt Lake Center
Wed 06:56:39 PM 39.1483 -109.9381 95° East 523 602 35,000  Level Salt Lake Center
Wed 06:57:13 PM 39.1403 -109.8467 96° East 521 600 35,000  Level Denver Center
Wed 06:58:15 PM 39.1258 -109.6400 95° East 521 600 35,000  Level Denver Center
Wed 06:59:17 PM 39.1119 -109.4625 96° East 522 601 35,000  Level Denver Center
Wed 07:00:19 PM 39.0958 -109.2531 96° East 526 605 35,000  Level Denver Center
Wed 07:01:21 PM 39.0817 -109.0747 96° East 528 608 35,000  Level Denver Center
Wed 07:02:23 PM 39.0656 -108.8664 96° East 526 605 35,000  Level Denver Center
Wed 07:03:24 PM 39.0500 -108.6864 96° East 531 611 35,000  Level Denver Center
Wed 07:04:26 PM 39.0256 -108.4783 99° East 530 610 35,000  Level Denver Center
Wed 07:05:28 PM 39.0061 -108.2981 98° East 533 613 35,000  Level Denver Center
Wed 07:06:30 PM 38.9833 -108.0842 98° East 540 621 35,000  Level Denver Center
Wed 07:07:32 PM 38.9625 -107.9008 98° East 542 624 35,000  Level Denver Center
Wed 07:08:34 PM 38.9389 -107.6853 98° East 545 627 35,000  Level Denver Center
Wed 07:09:37 PM 38.9161 -107.4997 99° East 549 632 35,000  Level Denver Center
Wed 07:10:39 PM 38.8900 -107.2831 99° East 551 634 35,000  Level Denver Center
Wed 07:11:53 PM 38.8669 -107.0828 98° East 558 642 35,000  Level Denver Center
Wed 07:12:55 PM 38.8381 -106.8489 99° East 558 642 35,000  Level Denver Center
Wed 07:13:57 PM 38.8139 -106.6514 99° East 563 648 35,000  Level Denver Center
Wed 07:14:59 PM 38.7886 -106.4528 99° East 566 651 35,000  Level Denver Center
Wed 07:16:01 PM 38.7631 -106.2531 99° East 570 656 35,000  Level Denver Center
Wed 07:17:03 PM 38.7308 -106.0050 99° East 567 652 35,000  Level Denver Center
Wed 07:18:05 PM 38.7058 -105.8033 99° East 570 656 35,000  Level Denver Center
Wed 07:19:07 PM 38.6775 -105.6008 100° East 575 662 35,000  Level Denver Center
Wed 07:20:09 PM 38.6519 -105.4006 99° East 571 657 35,000  Level Denver Center
Wed 07:21:12 PM 38.6244 -105.2008 100° East 569 655 35,000  Level Denver Center
Wed 07:22:14 PM 38.5978 -104.9986 100° East 574 661 35,000  Level Denver Center
Wed 07:23:16 PM 38.5689 -104.7975 100° East 574 661 35,000  Level Denver Center
Wed 07:24:17 PM 38.5461 -104.6286 100° East 574 661 35,000  Level Denver Center
Wed 07:25:20 PM 38.5081 -104.3628 100° East 570 656 35,000  Level Denver Center
Wed 07:26:22 PM 38.4794 -104.1636 100° East 568 654 35,000  Level Denver Center
Wed 07:27:24 PM 38.4497 -103.9653 101° East 567 652 35,000  Level Denver Center
Wed 07:28:26 PM 38.4200 -103.7647 101° East 573 659 35,000  Level Denver Center
Wed 07:29:28 PM 38.3886 -103.5672 101° East 568 654 35,000  Level Denver Center
Wed 07:30:30 PM 38.3567 -103.3592 101° East 573 659 35,000  Level Denver Center
Wed 07:31:32 PM 38.3222 -103.1361 101° East 575 662 35,000  Level Denver Center
Wed 07:32:34 PM 38.2931 -102.9472 101° East 572 658 35,000  Level Denver Center
Wed 07:33:36 PM 38.2569 -102.7264 102° East 570 656 35,000  Level Denver Center
Wed 07:34:38 PM 38.2264 -102.5367 102° East 572 658 35,000  Level Denver Center
Wed 07:35:40 PM 38.1914 -102.3147 101° East 574 661 35,000  Level Denver Center
Wed 07:36:42 PM 38.1592 -102.1261 102° East 572 658 35,000  Level Denver Center
Wed 07:37:44 PM 38.1233 -101.9028 101° East 577 664 35,000  Level Denver Center
Wed 07:38:46 PM 38.0911 -101.7136 102° East 574 661 35,000  Level Denver Center
Wed 07:39:48 PM 38.0522 -101.4914 102° East 575 662 35,000  Level Denver Center
Wed 07:40:50 PM 38.0194 -101.3014 102° East 576 663 35,000  Level Denver Center
Wed 07:41:53 PM 37.9867 -101.1103 102° East 577 664 35,000  Level Denver Center
Wed 07:42:55 PM 37.9469 -100.8869 103° East 576 663 35,000 47 Level Denver Center
Wed 07:44:01 PM 37.9081 -100.6631 102° East 576 663 35,100  Climbing Kansas City Center
Wed 07:45:04 PM 37.8656 -100.4753 106° East 573 659 35,000 -48 Descending Kansas City Center
Wed 07:46:06 PM 37.8219 -100.2897 107° East 572 658 35,000  Level Kansas City Center
Wed 07:47:06 PM 37.7731 -100.0742 106° East 572 658 35,000  Level Kansas City Center
Wed 07:48:10 PM 37.7325 -99.8897 105° East 570 656 35,000  Level Kansas City Center
Wed 07:49:11 PM 37.6842 -99.6719 106° East 573 659 35,000  Level Kansas City Center
Wed 07:50:12 PM 37.6411 -99.4869 106° East 574 661 35,000  Level Kansas City Center
Wed 07:51:16 PM 37.5983 -99.3036 106° East 575 662 35,000  Level Kansas City Center
Wed 07:52:17 PM 37.5514 -99.1103 107° East 577 664 35,000  Level Kansas City Center
Wed 07:53:17 PM 37.4950 -98.8775 107° East 581 669 35,000  Level Kansas City Center
Wed 07:54:21 PM 37.4492 -98.6875 107° East 575 662 35,000  Level Kansas City Center
Wed 07:55:22 PM 37.4036 -98.4961 107° East 574 661 35,000  Level Kansas City Center
Wed 07:56:23 PM 37.3567 -98.3044 107° East 576 663 35,000  Level Kansas City Center
Wed 07:57:24 PM 37.3100 -98.1133 107° East 577 664 35,000  Level Kansas City Center
Wed 07:58:28 PM 37.2631 -97.9222 107° East 577 664 35,000  Level Kansas City Center
Wed 07:59:29 PM 37.2053 -97.6958 108° East 575 662 35,000  Level Kansas City Center
Wed 08:00:30 PM 37.1569 -97.5053 108° East 578 665 35,000  Level Kansas City Center
Wed 08:01:34 PM 37.1094 -97.3158 107° East 575 662 35,000  Level Kansas City Center
Wed 08:02:34 PM 37.0622 -97.1197 107° East 585 673 35,000  Level Kansas City Center
Wed 08:03:34 PM 37.0097 -96.9361 110° East 569 655 35,000  Level Kansas City Center
Wed 08:04:38 PM 36.9550 -96.7189 107° East 576 663 35,000  Level Kansas City Center
Wed 08:05:38 PM 36.9053 -96.5283 108° East 577 664 35,000  Level Kansas City Center
Wed 08:06:42 PM 36.8561 -96.3350 108° East 581 669 35,000  Level Kansas City Center
Wed 08:07:43 PM 36.8069 -96.1453 108° East 576 663 35,000  Level Kansas City Center
Wed 08:08:43 PM 36.7561 -95.9544 108° East 576 663 35,000  Level Kansas City Center
Wed 08:09:47 PM 36.7047 -95.7653 109° East 574 661 35,000  Level Kansas City Center
Wed 08:10:47 PM 36.6428 -95.5358 109° East 575 662 35,000  Level Kansas City Center
Wed 08:11:51 PM 36.5958 -95.3622 109° East 575 662 35,000  Level Kansas City Center
Wed 08:12:52 PM 36.5431 -95.1744 109° East 575 662 35,000  Level Kansas City Center
Wed 08:13:53 PM 36.4836 -94.9631 109° East 573 659 35,000  Level Kansas City Center
Wed 08:14:54 PM 36.4297 -94.7753 110° East 573 659 35,000  Level Kansas City Center
Wed 08:15:58 PM 36.3761 -94.5881 110° East 574 661 35,000  Level Kansas City Center
Wed 08:16:21 PM 36.3561 -94.5161 109° East 568 654 35,000  Level Memphis Center
Wed 08:17:21 PM 36.3039 -94.3331 109° East 573 659 35,000  Level Memphis Center
Wed 08:18:21 PM 36.2511 -94.1478 109° East 573 659 35,000  Level Memphis Center
Wed 08:19:21 PM 36.1983 -93.9653 110° East 573 659 35,000  Level Memphis Center
Wed 08:20:21 PM 36.1514 -93.7783 107° East 573 659 35,000  Level Memphis Center
Wed 08:21:21 PM 36.1000 -93.5964 109° East 573 659 35,000  Level Memphis Center
Wed 08:22:21 PM 36.0483 -93.4119 109° East 573 659 35,000  Level Memphis Center
Wed 08:23:21 PM 35.9942 -93.2331 110° East 567 652 35,000  Level Memphis Center
Wed 08:24:21 PM 35.9442 -93.0467 108° East 567 652 35,000  Level Memphis Center
Wed 08:25:21 PM 35.8878 -92.8475 109° East 567 652 35,000  Level Memphis Center
Wed 08:26:21 PM 35.8350 -92.6642 110° East 567 652 35,000  Level Memphis Center
Wed 08:27:21 PM 35.7797 -92.4858 111° Southeast 567 652 35,000  Level Memphis Center
Wed 08:28:21 PM 35.7286 -92.3056 109° East 567 652 35,000  Level Memphis Center
Wed 08:29:21 PM 35.6750 -92.1256 110° East 562 647 35,000  Level Memphis Center
Wed 08:30:21 PM 35.6231 -91.9481 110° East 556 640 35,000  Level Memphis Center
Wed 08:31:21 PM 35.5711 -91.7686 110° East 551 634 35,000  Level Memphis Center
Wed 08:32:21 PM 35.5164 -91.5942 111° Southeast 551 634 35,000  Level Memphis Center
Wed 08:33:21 PM 35.4639 -91.4150 110° East 551 634 35,000  Level Memphis Center
Wed 08:34:21 PM 35.4111 -91.2411 110° East 551 634 35,000  Level Memphis Center
Wed 08:35:21 PM 35.3558 -91.0672 111° Southeast 551 634 35,000  Level Memphis Center
Wed 08:36:21 PM 35.3086 -90.9117 110° East 546 628 35,000  Level Memphis Center
Wed 08:37:21 PM 35.2531 -90.7333 111° Southeast 551 634 35,000  Level Memphis Center
Wed 08:38:21 PM 35.2011 -90.5603 110° East 551 634 35,000  Level Memphis Center
Wed 08:39:21 PM 35.1450 -90.3875 112° Southeast 551 634 35,000  Level Memphis Center
Wed 08:40:21 PM 35.0908 -90.2150 111° Southeast 551 634 35,000  Level Memphis Center
Wed 08:41:21 PM 35.0361 -90.0400 111° Southeast 545 627 35,000  Level Memphis Center
Wed 08:42:21 PM 34.9981 -89.8450 103° East 550 633 35,000  Level Memphis Center
Wed 08:43:21 PM 34.9719 -89.6500 99° East 558 642 35,000  Level Memphis Center
Wed 08:44:21 PM 34.9414 -89.4678 102° East 558 642 35,000  Level Memphis Center
Wed 08:45:21 PM 34.9153 -89.3036 101° East 553 636 35,000  Level Memphis Center
Wed 08:46:21 PM 34.8886 -89.1217 100° East 548 631 35,000  Level Memphis Center
Wed 08:47:21 PM 34.8594 -88.9397 101° East 543 625 35,000  Level Memphis Center
Wed 08:48:21 PM 34.8322 -88.7606 100° East 548 631 35,000  Level Memphis Center
Wed 08:49:21 PM 34.8047 -88.5792 100° East 548 631 35,000  Level Memphis Center
Wed 08:50:21 PM 34.7750 -88.4078 102° East 536 617 35,000  Level Memphis Center
Wed 08:51:21 PM 34.7492 -88.2289 100° East 531 611 35,000  Level Memphis Center
Wed 08:52:21 PM 34.7161 -88.0225 101° East 551 634 35,000  Level Memphis Center
Wed 08:53:21 PM 34.6856 -87.8492 102° East 545 627 35,000 -600 Level Memphis Center
Wed 08:55:41 PM 34.6217 -87.4439 101° East 519 597 33,000 -600 Descending Atlanta Center
Wed 08:56:41 PM 34.5925 -87.2861 103° East 525 604 33,000  Level Atlanta Center
Wed 08:57:41 PM 34.5594 -87.1133 103° East 525 604 33,000  Level Atlanta Center
Wed 08:58:41 PM 34.5258 -86.9433 103° East 525 604 33,000  Level Atlanta Center
Wed 08:59:41 PM 34.4925 -86.7683 103° East 525 604 33,000 -100 Level Atlanta Center
Wed 09:00:41 PM 34.4586 -86.5983 104° East 525 604 32,800 -800 Descending Atlanta Center
Wed 09:01:41 PM 34.4244 -86.4236 103° East 530 610 31,400 -1,350 Descending Atlanta Center
Wed 09:02:41 PM 34.3922 -86.2489 103° East 530 610 30,100 -1,350 Descending Atlanta Center
Wed 09:03:41 PM 34.3578 -86.0744 103° East 530 610 28,700 -1,350 Descending Atlanta Center
Wed 09:04:41 PM 34.3228 -85.8975 103° East 530 610 27,400 -1,750 Descending Atlanta Center
Wed 09:05:41 PM 34.2878 -85.7258 104° East 525 604 25,200 -2,350 Descending Atlanta Center
Wed 09:06:41 PM 34.2544 -85.5592 104° East 519 597 22,700 -2,500 Descending Atlanta Center
Wed 09:07:41 PM 34.2208 -85.3978 104° East 503 579 20,200 -2,400 Descending Atlanta Center
Wed 09:08:41 PM 34.1892 -85.2417 104° East 484 557 17,900 -2,300 Descending Atlanta Center
Wed 09:09:41 PM 34.1383 -85.0853 111° Southeast 468 539 15,600 -1,950 Descending Atlanta Center
Wed 09:10:41 PM 34.0558 -84.9792 133° Southeast 435 501 14,000 -1,450 Descending Atlanta Center
Wed 09:11:41 PM 33.9772 -84.8806 134° Southeast 417 480 12,700 -1,000 Descending Atlanta Center
Wed 09:12:41 PM 33.9047 -84.7897 134° Southeast 395 455 12,000 -336 Descending Atlanta Center
Wed 09:13:46 PM 33.8333 -84.7000 134° Southeast 344 396 12,000 46 Level Atlanta TRACON
Wed 09:14:52 PM 33.7667 -84.6167 134° Southeast 273 314 12,100 -333 Climbing Atlanta TRACON
Wed 09:15:52 PM 33.7333 -84.5333 116° Southeast 274 315 11,300 -1,550 Descending Atlanta TRACON
Wed 09:16:52 PM 33.7333 -84.4500 90° East 281 323 9,000 -2,250 Descending Atlanta TRACON
Wed 09:17:52 PM 33.7333 -84.3500 90° East 287 330 6,800 -2,200 Descending Atlanta TRACON
Wed 09:18:52 PM 33.7333 -84.2667 90° East 269 310 4,600 -1,350 Descending Atlanta TRACON
Wed 09:19:52 PM 33.6833 -84.2167 140° Southeast 225 259 4,100 -714 Descending Atlanta TRACON
Wed 09:20:58 PM 33.6667 -84.2833 253° West 188 216 3,100 -909 Descending Atlanta TRACON

Login

Don't have an account? Register now (free) for customized features, flight alerts, and more!